Latest Weather Observations for Shark Bay Airport

IDW60801

Issued at 7:35 am WST Sunday 23 November 2014 (issued every 30 minutes, with the page automatically refreshed every 10 minutes)

About weather observations | Map of weather stations | Latest weather observations for WA | Other Formats
Station Details ID: 006105 Name: SHARK BAY AIRPORT Lat: -25.89 Lon: 113.58 Height: 33.8 m
Data from the previous 72 hours. | See also: Recent months for locations in Western Australia
Date/Time
WST
Temp
°C
App
Temp
°C
Dew
Point
Rel
Hum
%
Delta-T
°C
Wind Press
QNH
hPa
Press
MSL
hPa
Rain
since 9 am
mm
Dir
 
Spd
km/h
Gust
km/h
Spd
kts
Gust
kts
23/07:30am 20.3 15.6 12.0 59 4.6 SSE 28 35 15 19 1015.9 1015.8 0.0
23/07:00am 19.4 14.8 12.2 63 4.0 SE 28 39 15 21 1015.7 1015.6 0.0
23/06:30am 18.6 15.7 12.8 69 3.3 SSE 20 32 11 17 1015.4 1015.3 0.0
23/06:00am 16.9 14.7 12.2 74 2.6 SSE 15 19 8 10 1015.0 1014.9 0.0
23/05:30am 16.7 14.6 12.3 75 2.4 SE 15 19 8 10 1014.6 1014.5 0.0
23/05:00am 16.3 14.5 12.1 76 2.3 SE 13 15 7 8 1014.2 1014.1 0.0
23/04:30am 16.3 14.6 12.3 77 2.2 SE 13 19 7 10 1013.8 1013.7 0.0
23/04:00am 16.4 14.6 12.0 75 2.4 SSE 13 17 7 9 1013.6 1013.5 0.0
23/03:30am 17.1 14.6 12.2 73 2.7 SE 17 20 9 11 1013.5 1013.4 0.0
23/03:00am 17.5 15.3 12.2 71 2.9 SSE 15 20 8 11 1013.4 1013.3 0.0
23/02:30am 17.9 15.4 12.4 70 3.1 SSE 17 22 9 12 1013.3 1013.2 0.0
23/02:00am 17.9 15.3 12.1 69 3.2 SSE 17 20 9 11 1013.5 1013.4 0.0
23/01:30am 17.9 16.6 12.4 70 3.1 SSE 11 17 6 9 1013.6 1013.5 0.0
23/01:00am 18.1 16.2 11.9 67 3.4 S 13 19 7 10 1013.8 1013.7 0.0
23/12:30am 18.5 15.5 12.0 66 3.6 S 19 26 10 14 1014.1 1014.0 0.0
23/12:00am 18.7 15.5 12.0 65 3.7 S 20 30 11 16 1014.1 1014.0 0.0
 
Date/Time
WST
Temp
°C
App
Temp
°C
Dew
Point
Rel
Hum
%
Delta-T
°C
Wind Press
QNH
hPa
Press
MSL
hPa
Rain
since 9 am
mm
Dir
 
Spd
km/h
Gust
km/h
Spd
kts
Gust
kts
22/11:30pm 18.9 15.9 11.9 64 3.9 S 19 28 10 15 1014.4 1014.3 0.0
22/11:00pm 19.2 16.4 12.5 65 3.8 S 19 30 10 16 1014.5 1014.4 0.0
22/10:30pm 19.1 15.6 12.1 64 3.9 S 22 32 12 17 1014.8 1014.7 0.0
22/10:00pm 19.1 15.6 12.1 64 3.9 S 22 30 12 16 1014.8 1014.7 0.0
22/09:30pm 19.3 16.2 12.3 64 3.9 S 20 30 11 16 1014.6 1014.5 0.0
22/09:00pm 19.7 16.0 12.7 64 3.9 SSW 24 35 13 19 1014.7 1014.6 0.0
22/08:30pm 19.9 16.1 12.4 62 4.2 SSW 24 32 13 17 1014.6 1014.5 0.0
22/08:00pm 20.3 15.5 11.5 57 4.9 SSW 28 39 15 21 1014.4 1014.3 0.0
22/07:30pm 20.6 15.5 10.7 53 5.4 SSW 28 37 15 20 1014.0 1013.9 0.0
22/07:00pm 21.1 16.0 10.6 51 5.7 SSW 28 33 15 18 1013.8 1013.7 0.0
22/06:30pm 22.0 17.3 10.8 49 6.2 S 26 35 14 19 1013.5 1013.4 0.0
22/06:00pm 23.0 17.8 10.1 44 7.1 S 28 35 15 19 1013.3 1013.2 0.0
22/05:30pm 23.8 18.0 9.4 40 7.8 SSW 30 41 16 22 1013.0 1012.9 0.0
22/05:00pm 24.7 19.1 10.2 40 8.0 S 30 37 16 20 1012.9 1012.8 0.0
22/04:30pm 25.1 20.1 10.9 41 8.0 SW 28 41 15 22 1012.9 1012.8 0.0
22/04:00pm 25.9 23.1 13.1 45 7.5 SW 20 28 11 15 1012.9 1012.8 0.0
22/03:30pm 26.5 23.7 13.3 44 7.8 SSW 20 33 11 18 1013.1 1013.0 0.0
22/03:00pm 25.4 22.5 12.3 44 7.5 SW 19 32 10 17 1013.3 1013.2 0.0
22/02:30pm 25.6 22.3 11.7 42 7.9 SSW 20 30 11 16 1013.4 1013.3 0.0
22/02:00pm 26.9 24.2 12.9 42 8.2 WSW 19 28 10 15 1013.7 1013.6 0.0
22/01:30pm 27.7 25.4 12.9 40 8.7 SW 17 26 9 14 1013.8 1013.7 0.0
22/01:00pm 27.0 24.6 12.6 41 8.4 SW 17 26 9 14 1014.0 1013.9 0.0
22/12:30pm 27.1 24.1 12.0 39 8.7 SW 19 28 10 15 1014.0 1013.9 0.0
22/12:00pm 25.6 22.3 11.7 42 7.9 WSW 20 28 11 15 1014.3 1014.2 0.0
22/11:30am 26.6 23.8 12.6 42 8.1 SW 19 28 10 15 1014.5 1014.4 0.0
22/11:00am 26.3 24.2 12.4 42 8.0 SW 15 26 8 14 1014.6 1014.5 0.0
22/10:30am 25.9 23.8 12.4 43 7.8 S 15 22 8 12 1014.8 1014.7 0.0
22/10:00am 25.0 22.0 11.9 44 7.5 SW 19 26 10 14 1015.0 1014.9 0.0
22/09:30am 24.2 22.2 12.8 49 6.6 S 15 24 8 13 1015.2 1015.1 0.0
22/09:00am 22.6 20.9 13.7 57 5.2 SSE 15 22 8 12 1015.3 1015.2 0.0
22/08:30am 21.2 18.9 14.1 64 4.1 SSE 19 24 10 13 1015.3 1015.2 0.0
22/08:00am 21.3 19.8 15.2 68 3.6 SE 17 24 9 13 1015.1 1015.0 0.0
22/07:30am 21.0 19.1 15.3 70 3.4 SE 19 24 10 13 1014.8 1014.7 0.0
22/07:00am 21.7 20.5 16.0 70 3.4 SSE 17 24 9 13 1014.5 1014.4 0.0
22/06:30am 19.6 19.3 15.5 77 2.4 SSE 11 17 6 9 1014.1 1014.0 0.0
22/06:00am 18.6 18.6 15.3 81 1.9 S 9 11 5 6 1014.0 1013.9 0.0
22/05:30am 17.7 17.0 14.4 81 1.9 S 11 11 6 6 1013.5 1013.4 0.0
22/05:00am 18.2 17.6 14.7 80 2.0 S 11 15 6 8 1013.2 1013.1 0.0
22/04:30am 18.7 17.4 14.8 78 2.3 S 15 19 8 10 1012.9 1012.8 0.0
22/04:00am 19.1 17.1 15.0 77 2.4 S 19 26 10 14 1012.8 1012.7 0.0
22/03:30am 19.2 17.4 15.5 79 2.2 S 19 26 10 14 1012.7 1012.6 0.0
22/03:00am 19.1 17.7 15.6 80 2.1 S 17 24 9 13 1012.5 1012.4 0.0
22/02:30am 19.0 18.0 15.5 80 2.1 S 15 19 8 10 1012.6 1012.5 0.0
22/02:00am 19.5 18.1 15.6 78 2.3 S 17 24 9 13 1012.7 1012.6 0.0
22/01:30am 20.2 18.4 16.0 77 2.5 S 20 28 11 15 1012.9 1012.8 0.0
22/01:00am 19.9 18.1 16.0 78 2.3 S 20 28 11 15 1013.1 1013.0 0.0
22/12:30am 20.1 17.2 16.1 78 2.4 SSW 26 33 14 18 1013.2 1013.1 0.0
22/12:00am 20.1 17.5 15.9 77 2.5 SSW 24 32 13 17 1013.6 1013.5 0.0
 
Date/Time
WST
Temp
°C
App
Temp
°C
Dew
Point
Rel
Hum
%
Delta-T
°C
Wind Press
QNH
hPa
Press
MSL
hPa
Rain
since 9 am
mm
Dir
 
Spd
km/h
Gust
km/h
Spd
kts
Gust
kts
21/11:30pm 20.3 17.3 15.9 76 2.6 SSW 26 35 14 19 1013.7 1013.6 0.0
21/11:00pm 20.4 17.8 16.0 76 2.6 SSW 24 35 13 19 1013.8 1013.7 0.0
21/10:30pm 20.6 17.7 16.2 76 2.6 SSW 26 37 14 20 1014.0 1013.9 0.0
21/10:00pm 20.4 18.1 15.6 74 2.9 SSW 22 32 12 17 1014.2 1014.1 0.0
21/09:30pm 20.5 17.7 15.3 72 3.1 SSW 24 37 13 20 1014.1 1014.0 0.0
21/09:00pm 20.6 17.4 15.4 72 3.1 SSW 26 37 14 20 1014.0 1013.9 0.0
21/08:30pm 20.6 17.7 15.2 71 3.2 SSW 24 41 13 22 1013.9 1013.8 0.0
21/08:00pm 20.8 17.6 15.4 71 3.2 SSW 26 35 14 19 1013.7 1013.6 0.0
21/07:30pm 21.0 17.7 15.1 69 3.5 SW 26 35 14 19 1013.5 1013.4 0.0
21/07:00pm 21.2 17.9 15.1 68 3.6 SW 26 33 14 18 1013.2 1013.1 0.0
21/06:30pm 22.0 17.8 14.6 63 4.4 SW 30 37 16 20 1012.9 1012.8 0.0
21/06:00pm 22.9 18.8 13.9 57 5.3 SW 28 39 15 21 1012.8 1012.7 0.0
21/05:30pm 23.4 18.5 13.8 54 5.6 SW 32 43 17 23 1012.6 1012.5 0.0
21/05:00pm 23.9 18.5 12.8 49 6.4 SW 33 44 18 24 1012.6 1012.5 0.0
21/04:30pm 24.7 19.8 12.6 47 7.0 SW 30 41 16 22 1012.6 1012.5 0.0
21/04:00pm 25.4 20.4 12.3 44 7.5 SW 30 39 16 21 1012.8 1012.7 0.0
21/03:30pm 26.0 22.1 12.1 42 8.0 SW 24 35 13 19 1012.9 1012.8 0.0
21/03:00pm 26.4 22.5 12.1 41 8.2 WSW 24 33 13 18 1013.0 1012.9 0.0
21/02:30pm 26.3 22.4 12.0 41 8.2 SW 24 32 13 17 1013.2 1013.1 0.0
21/02:00pm 26.4 23.3 12.1 41 8.2 SW 20 30 11 16 1013.5 1013.4 0.0
21/01:30pm 25.9 22.2 11.6 40 8.1 SW 22 32 12 17 1013.7 1013.6 0.0
21/01:00pm 26.4 23.0 11.3 39 8.6 SW 20 28 11 15 1014.0 1013.9 0.0
21/12:30pm 26.3 22.4 10.9 38 8.7 WSW 22 33 12 18 1014.3 1014.2 0.0
21/12:00pm 26.4 22.9 10.9 38 8.7 WSW 20 32 11 17 1014.6 1014.5 0.0
21/11:30am 25.8 22.4 11.2 40 8.3 SW 20 33 11 18 1014.9 1014.8 0.0
21/11:00am 24.9 21.3 10.7 40 7.9 SSW 20 33 11 18 1015.1 1015.0 0.0
21/10:30am 24.7 21.3 10.6 41 7.9 SSW 19 30 10 16 1015.5 1015.4 0.0
21/10:00am 24.7 21.4 11.6 44 7.4 SW 20 32 11 17 1015.7 1015.6 0.0
21/09:30am 23.4 19.6 11.1 46 6.9 SW 22 33 12 18 1016.0 1015.9 0.0
21/09:00am 22.6 19.8 11.4 49 6.3 SSW 17 26 9 14 1015.8 1015.7 0.0
21/08:30am 23.1 20.6 10.9 46 6.8 SSE 15 26 8 14 1015.7 1015.6 0.0
21/08:00am 22.2 19.9 11.6 51 5.9 S 15 24 8 13 1015.6 1015.5 0.0
21/07:30am 21.6 19.9 12.5 56 5.2 S 13 20 7 11 1015.4 1015.3 0.0
21/07:00am 20.5 19.4 14.2 67 3.7 SSE 13 19 7 10 1015.2 1015.1 0.0
21/06:30am 19.1 18.9 14.6 75 2.6 SSE 9 13 5 7 1014.8 1014.7 0.0
21/06:00am 18.0 17.7 14.3 79 2.1 S 9 11 5 6 1014.6 1014.5 0.0
21/05:30am 17.4 16.9 13.9 80 2.0 SSE 9 11 5 6 1014.0 1013.9 0.0
21/05:00am 17.0 16.4 13.5 80 2.0 S 9 11 5 6 1013.7 1013.6 0.0
21/04:30am 17.2 16.2 13.3 78 2.2 S 11 13 6 7 1013.6 1013.5 0.0
21/04:00am 18.0 16.8 14.1 78 2.2 S 13 15 7 8 1013.4 1013.3 0.0
21/03:30am 18.1 17.3 14.0 77 2.3 S 11 15 6 8 1013.4 1013.3 0.0
21/03:00am 17.9 17.0 13.6 76 2.4 S 11 13 6 7 1013.4 1013.3 0.0
21/02:30am 18.6 18.1 13.9 74 2.7 S 9 15 5 8 1013.4 1013.3 0.0
21/02:00am 18.9 18.1 14.0 73 2.8 S 11 17 6 9 1013.6 1013.5 0.0
21/01:30am 19.3 17.7 13.9 71 3.1 S 15 19 8 10 1013.7 1013.6 0.0
21/01:00am 19.5 18.0 14.1 71 3.1 S 15 20 8 11 1014.1 1014.0 0.0
21/12:30am 19.1 17.8 13.7 71 3.1 S 13 20 7 11 1014.4 1014.3 0.0
21/12:00am 19.4 17.1 14.0 71 3.1 S 19 24 10 13 1014.4 1014.3 0.0
 
Date/Time
WST
Temp
°C
App
Temp
°C
Dew
Point
Rel
Hum
%
Delta-T
°C
Wind Press
QNH
hPa
Press
MSL
hPa
Rain
since 9 am
mm
Dir
 
Spd
km/h
Gust
km/h
Spd
kts
Gust
kts
20/11:30pm 19.9 17.6 14.0 69 3.4 S 19 24 10 13 1014.6 1014.5 0.0
20/11:00pm 20.1 18.1 14.0 68 3.5 S 17 20 9 11 1014.8 1014.7 0.0
20/10:30pm 20.3 17.8 14.2 68 3.5 S 20 28 11 15 1015.0 1014.9 0.0
20/10:00pm 20.3 17.5 14.2 68 3.5 SSW 22 32 12 17 1015.0 1014.9 0.0
20/09:30pm 20.5 17.0 14.4 68 3.6 SSW 26 33 14 18 1015.1 1015.0 0.0
20/09:00pm 20.5 17.0 14.4 68 3.6 SSW 26 33 14 18 1015.0 1014.9 0.0
20/08:30pm 20.5 17.3 14.2 67 3.7 SSW 24 33 13 18 1014.8 1014.7 0.0
20/08:00pm 20.7 17.4 13.9 65 3.9 SSW 24 30 13 16 1014.4 1014.3 0.0
20/07:30pm 21.1 17.3 12.5 58 4.9 SSW 24 32 13 17 1014.1 1014.0 0.0
20/07:00pm 21.6 18.1 13.5 60 4.7 SSW 24 33 13 18 1013.8 1013.7 0.0
20/06:30pm 22.4 18.9 13.5 57 5.2 SSW 24 35 13 19 1013.7 1013.6 0.0
20/06:00pm 22.9 19.0 14.5 59 5.0 SW 28 35 15 19 1013.4 1013.3 0.0
20/05:30pm 23.6 19.6 14.0 55 5.6 SW 28 35 15 19 1013.3 1013.2 0.0
20/05:00pm 24.4 20.9 13.3 50 6.5 SW 24 33 13 18 1013.2 1013.1 0.0
20/04:30pm 24.5 20.0 13.7 51 6.3 SW 30 41 16 22 1013.3 1013.2 0.0
20/04:00pm 25.2 20.9 13.1 47 7.0 SW 28 37 15 20 1013.4 1013.3 0.0
20/03:30pm 25.8 21.5 13.3 46 7.3 SW 28 37 15 20 1013.4 1013.3 0.0
20/03:00pm 25.3 20.6 13.2 47 7.1 WSW 30 39 16 21 1013.6 1013.5 0.0
20/02:30pm 26.0 21.3 13.2 45 7.5 WSW 30 43 16 23 1013.9 1013.8 0.0
20/02:00pm 26.4 22.1 13.2 44 7.7 WSW 28 39 15 21 1014.0 1013.9 0.0
20/01:30pm 26.3 22.2 13.8 46 7.4 WSW 28 39 15 21 1014.2 1014.1 0.0
20/01:00pm 26.9 23.3 12.9 42 8.2 SW 24 32 13 17 1014.4 1014.3 0.0
20/12:30pm 26.2 21.9 9.5 35 9.2 SW 22 35 12 19 1014.7 1014.6 0.0
20/12:00pm 26.1 22.5 10.7 38 8.6 SW 20 32 11 17 1015.0 1014.9 0.0
20/11:30am 25.6 22.8 11.4 41 8.1 WSW 17 24 9 13 1015.3 1015.2 0.0
20/11:00am 25.9 23.3 12.0 42 8.0 WSW 17 28 9 15 1015.6 1015.5 0.0
20/10:30am 24.9 22.0 11.1 42 7.8 SW 17 24 9 13 1015.9 1015.8 0.0
20/10:00am 24.2 21.2 11.9 46 7.0 SW 19 28 10 15 1016.1 1016.0 0.0
20/09:30am 24.4 21.5 12.4 47 6.9 WSW 19 24 10 13 1016.1 1016.0 0.0
20/09:00am 24.1 22.9 12.7 49 6.6 S 11 19 6 10 1016.2 1016.1 0.0
20/08:30am 23.3 22.2 12.0 49 6.4 SE 9 15 5 8 1016.2 1016.1 0.0
20/08:00am 22.0 21.0 12.3 54 5.5 S 9 15 5 8 1016.3 1016.2 0.0

Other Formats:

Comma delimited format used in spreadsheet applications
http://www.bom.gov.au/fwo/IDW60801/IDW60801.95402.axf

JavaScript Object Notation format (JSON) in row-major order
http://www.bom.gov.au/fwo/IDW60801/IDW60801.95402.json